Time;durP1;ratioP1;P1;durP2;ratioP2;P2;SDS_P1;SDS_P2;PMS_P1;PMS_P2;Temp;Humidity;BMP_temperature;BMP_pressure;BME280_temperature;BME280_humidity;BME280_pressure;Samples;Min_cycle;Max_cycle;Signal;HPM_P1;HPM_P2
2024/02/02 00:00:20;;;;;;;7.22;1.42;;;19.40;75.30;;;;;;5053032;28;20025;-65
2024/02/02 00:02:46;;;;;;;6.70;1.33;;;19.40;75.30;;;;;;5053853;28;20028;-65
2024/02/02 00:05:11;;;;;;;4.25;1.02;;;19.40;75.40;;;;;;5053586;28;20025;-66
2024/02/02 00:07:37;;;;;;;5.30;1.27;;;19.40;75.50;;;;;;5053589;28;20396;-65
2024/02/02 00:10:03;;;;;;;4.43;1.27;;;19.40;75.50;;;;;;5051910;28;20021;-65
2024/02/02 00:12:29;;;;;;;2.22;0.95;;;19.40;75.50;;;;;;5053300;28;20044;-66
2024/02/02 00:14:55;;;;;;;3.10;1.17;;;19.40;75.40;;;;;;5053319;28;20028;-65
2024/02/02 00:17:21;;;;;;;4.00;1.00;;;19.40;75.80;;;;;;5053442;28;20068;-64
2024/02/02 00:19:46;;;;;;;2.63;0.90;;;19.40;75.50;;;;;;5053511;28;20052;-65
2024/02/02 00:22:12;;;;;;;4.30;1.00;;;19.40;75.30;;;;;;5052758;28;20100;-65
2024/02/02 00:24:38;;;;;;;1.90;0.80;;;19.40;75.40;;;;;;5053255;28;20017;-65
2024/02/02 00:27:05;;;;;;;5.85;0.70;;;19.40;75.30;;;;;;5053047;28;20078;-65
2024/02/02 00:29:30;;;;;;;1.98;0.63;;;19.40;75.30;;;;;;5052804;28;20492;-66
2024/02/02 00:31:56;;;;;;;1.70;0.70;;;19.40;75.20;;;;;;5052454;28;20033;-66
2024/02/02 00:34:21;;;;;;;2.55;0.75;;;19.40;75.40;;;;;;5052994;28;20029;-67
2024/02/02 00:36:47;;;;;;;4.05;1.20;;;19.40;75.40;;;;;;5052939;28;20033;-67
2024/02/02 00:39:13;;;;;;;5.30;1.33;;;19.40;75.70;;;;;;5052782;28;20049;-66
2024/02/02 00:41:39;;;;;;;2.28;1.05;;;19.40;75.30;;;;;;5052025;28;20497;-66
2024/02/02 00:44:06;;;;;;;5.80;1.00;;;19.40;75.50;;;;;;5052741;28;20082;-66
2024/02/02 00:46:32;;;;;;;3.22;1.00;;;19.40;75.50;;;;;;5052587;28;20484;-66
2024/02/02 00:48:58;;;;;;;2.83;0.77;;;19.40;75.50;;;;;;5052496;28;20035;-67
2024/02/02 00:51:24;;;;;;;8.50;0.80;;;19.40;75.50;;;;;;5051996;28;20033;-65
2024/02/02 00:53:49;;;;;;;1.52;0.70;;;19.40;75.30;;;;;;5052328;28;20037;-65
2024/02/02 00:56:15;;;;;;;3.75;0.85;;;19.40;75.50;;;;;;5052370;28;20048;-66
2024/02/02 00:58:41;;;;;;;5.90;0.90;;;19.40;75.30;;;;;;5052495;28;20025;-66
2024/02/02 01:01:06;;;;;;;7.63;0.98;;;19.40;75.30;;;;;;5051926;28;20393;-65
2024/02/02 01:03:33;;;;;;;1.77;0.55;;;19.40;75.30;;;;;;5052325;28;20067;-65
2024/02/02 01:05:59;;;;;;;5.10;0.82;;;19.40;75.30;;;;;;5052326;28;20029;-65
2024/02/02 01:08:25;;;;;;;2.45;0.77;;;19.40;75.20;;;;;;5052421;28;20029;-66
2024/02/02 01:10:51;;;;;;;2.25;1.02;;;19.40;75.50;;;;;;5051426;28;20437;-65
2024/02/02 01:13:17;;;;;;;3.78;1.13;;;19.30;75.40;;;;;;5051820;28;20021;-66
2024/02/02 01:15:42;;;;;;;2.13;0.80;;;19.40;75.30;;;;;;5052216;28;20028;-66
2024/02/02 01:18:08;;;;;;;2.05;0.88;;;19.40;75.50;;;;;;5052187;28;20028;-65
2024/02/02 01:20:34;;;;;;;4.65;1.35;;;19.40;75.30;;;;;;5051672;28;20036;-65
2024/02/02 01:23:00;;;;;;;4.78;0.88;;;19.40;75.50;;;;;;5051962;28;20029;-66
2024/02/02 01:25:29;;;;;;;2.67;0.77;;;19.40;75.50;;;;;;5052005;28;20397;-66
2024/02/02 01:27:55;;;;;;;7.13;1.17;;;19.40;75.50;;;;;;5050733;28;20048;-67
2024/02/02 01:30:23;;;;;;;2.85;0.68;;;19.40;75.70;;;;;;5051384;28;20024;-67
2024/02/02 01:32:49;;;;;;;4.05;1.02;;;19.40;75.40;;;;;;5051888;28;20025;-65
2024/02/02 01:35:17;;;;;;;12.70;1.38;;;19.40;75.70;;;;;;5051752;28;20024;-66
2024/02/02 01:37:45;;;;;;;3.58;1.15;;;19.40;75.40;;;;;;5051634;28;20028;-65
2024/02/02 01:40:13;;;;;;;5.13;0.75;;;19.40;75.60;;;;;;5050927;28;20029;-65
2024/02/02 01:42:40;;;;;;;6.03;1.25;;;19.40;75.80;;;;;;5051901;28;20020;-64
2024/02/02 01:45:06;;;;;;;4.30;1.30;;;19.40;75.80;;;;;;5052060;28;20021;-67
2024/02/02 01:47:32;;;;;;;5.28;1.00;;;19.40;75.70;;;;;;5052161;28;20025;-67
2024/02/02 01:49:57;;;;;;;2.75;0.93;;;19.40;75.50;;;;;;5051952;28;20025;-67
2024/02/02 01:52:23;;;;;;;5.55;1.23;;;19.40;75.40;;;;;;5052083;28;20020;-66
2024/02/02 01:54:49;;;;;;;2.72;1.05;;;19.40;75.40;;;;;;5051724;28;20079;-66
2024/02/02 01:57:15;;;;;;;3.35;0.73;;;19.40;75.60;;;;;;5052165;28;20050;-66
2024/02/02 01:59:40;;;;;;;8.02;1.48;;;19.40;75.60;;;;;;5058465;28;20028;-66
2024/02/02 02:02:07;;;;;;;3.53;0.68;;;19.40;75.70;;;;;;5056709;28;20096;-67
2024/02/02 02:04:33;;;;;;;2.10;1.10;;;19.40;75.70;;;;;;5053395;28;20021;-65
2024/02/02 02:06:58;;;;;;;1.67;0.93;;;19.40;75.70;;;;;;5050843;28;20622;-65
2024/02/02 02:09:24;;;;;;;2.55;0.70;;;19.40;75.70;;;;;;5051106;28;20036;-65
2024/02/02 02:11:51;;;;;;;4.57;0.85;;;19.40;75.70;;;;;;5050628;28;20514;-65
2024/02/02 02:14:17;;;;;;;2.25;0.70;;;19.40;75.70;;;;;;5051190;28;20056;-65
2024/02/02 02:16:43;;;;;;;3.70;0.75;;;19.40;75.90;;;;;;5049830;28;20094;-65
2024/02/02 02:19:16;;;;;;;3.35;0.50;;;19.40;75.80;;;;;;5051057;28;20017;-66
2024/02/02 02:21:42;;;;;;;1.58;0.88;;;19.40;76.00;;;;;;5050654;28;20444;-66
2024/02/02 02:24:08;;;;;;;8.43;0.88;;;19.40;75.90;;;;;;5049686;28;20115;-65
2024/02/02 02:26:34;;;;;;;2.75;0.82;;;19.40;75.80;;;;;;5051115;28;20021;-64
2024/02/02 02:29:00;;;;;;;5.68;1.23;;;19.40;76.20;;;;;;5051149;28;20082;-64
2024/02/02 02:31:27;;;;;;;1.95;0.80;;;19.40;76.40;;;;;;5050228;28;20033;-64
2024/02/02 02:33:52;;;;;;;1.77;0.80;;;19.40;76.10;;;;;;5050996;28;20037;-65
2024/02/02 02:36:20;;;;;;;3.10;1.00;;;19.40;76.00;;;;;;5050720;28;20036;-64
2024/02/02 02:38:47;;;;;;;2.55;0.73;;;19.40;76.10;;;;;;5051281;28;20033;-64
2024/02/02 02:41:13;;;;;;;2.78;0.80;;;19.40;76.00;;;;;;5050273;28;20017;-64
2024/02/02 02:43:39;;;;;;;1.33;0.60;;;19.40;76.50;;;;;;5050916;28;20028;-65
2024/02/02 02:46:05;;;;;;;3.60;0.73;;;19.40;76.60;;;;;;5050968;28;20053;-65
2024/02/02 02:48:30;;;;;;;2.28;0.82;;;19.40;76.50;;;;;;5049513;28;20488;-64
2024/02/02 02:50:56;;;;;;;2.88;0.82;;;19.40;76.30;;;;;;5050136;28;20038;-65
2024/02/02 02:53:22;;;;;;;1.88;0.75;;;19.40;76.40;;;;;;5050497;28;20457;-66
2024/02/02 02:55:47;;;;;;;1.85;0.70;;;19.40;76.70;;;;;;5050760;28;20051;-66
2024/02/02 02:58:13;;;;;;;3.33;0.73;;;19.40;76.50;;;;;;5049598;28;20499;-68
2024/02/02 03:00:39;;;;;;;5.38;1.15;;;19.40;76.50;;;;;;5050799;28;20017;-65
2024/02/02 03:03:04;;;;;;;2.28;0.60;;;19.40;76.30;;;;;;5051458;28;20391;-66
2024/02/02 03:05:30;;;;;;;2.90;0.90;;;19.40;76.20;;;;;;5051446;28;20519;-64
2024/02/02 03:07:56;;;;;;;2.20;1.00;;;19.40;76.10;;;;;;5052126;28;20028;-65
2024/02/02 03:10:25;;;;;;;2.10;0.70;;;19.40;76.10;;;;;;5050412;28;20107;-65
2024/02/02 03:12:51;;;;;;;2.22;0.90;;;19.40;76.10;;;;;;5050668;28;20036;-65
2024/02/02 03:15:18;;;;;;;2.95;0.70;;;19.40;76.20;;;;;;5050574;28;20056;-65
2024/02/02 03:17:44;;;;;;;2.67;0.80;;;19.40;76.00;;;;;;5051668;28;20028;-64
2024/02/02 03:20:11;;;;;;;1.05;0.60;;;19.40;76.70;;;;;;5053414;28;20028;-64
2024/02/02 03:22:37;;;;;;;1.27;0.63;;;19.40;76.80;;;;;;5054446;28;20373;-64
2024/02/02 03:25:03;;;;;;;2.22;0.80;;;19.50;76.60;;;;;;5054227;28;20556;-64
2024/02/02 03:27:28;;;;;;;2.28;0.82;;;19.40;76.60;;;;;;5054355;28;20116;-64
2024/02/02 03:29:54;;;;;;;1.25;0.70;;;19.50;76.80;;;;;;5054077;28;20035;-64
2024/02/02 03:32:20;;;;;;;1.42;0.80;;;19.50;76.70;;;;;;5053495;28;20025;-64
2024/02/02 03:34:46;;;;;;;5.20;1.00;;;19.40;76.60;;;;;;5053866;28;20036;-64
2024/02/02 03:37:11;;;;;;;2.03;0.55;;;19.50;76.70;;;;;;5053997;28;20385;-64
2024/02/02 03:39:37;;;;;;;2.30;0.73;;;19.50;76.70;;;;;;5053906;28;20024;-65
2024/02/02 03:42:04;;;;;;;3.63;0.65;;;19.40;76.50;;;;;;5053355;28;20451;-65
2024/02/02 03:44:30;;;;;;;2.33;0.60;;;19.40;76.30;;;;;;5053973;28;20039;-64
2024/02/02 03:46:55;;;;;;;0.95;0.55;;;19.40;76.20;;;;;;5053933;28;20025;-64
2024/02/02 03:49:21;;;;;;;3.08;0.85;;;19.40;76.30;;;;;;5053746;28;20029;-65
2024/02/02 03:51:47;;;;;;;1.30;0.70;;;19.40;76.10;;;;;;5053030;28;20029;-65
2024/02/02 03:54:12;;;;;;;2.17;0.77;;;19.40;76.10;;;;;;5054295;28;20032;-64
2024/02/02 03:56:40;;;;;;;2.53;0.63;;;19.40;76.30;;;;;;5053710;28;20025;-64
2024/02/02 03:59:07;;;;;;;1.02;0.47;;;19.40;76.10;;;;;;5053778;28;20083;-64
2024/02/02 04:01:32;;;;;;;1.30;0.35;;;19.40;76.30;;;;;;5052928;28;20032;-64
2024/02/02 04:03:58;;;;;;;0.63;0.47;;;19.40;76.40;;;;;;5053345;28;20022;-65
2024/02/02 04:06:24;;;;;;;4.97;0.60;;;19.40;76.90;;;;;;5053655;28;20047;-66
2024/02/02 04:08:49;;;;;;;3.53;0.57;;;19.40;76.80;;;;;;5053370;28;20495;-67
2024/02/02 04:11:15;;;;;;;4.38;1.05;;;19.40;76.50;;;;;;5052719;28;20040;-66
2024/02/02 04:13:42;;;;;;;2.25;0.60;;;19.40;77.00;;;;;;5053409;28;20038;-66
2024/02/02 04:16:07;;;;;;;2.25;0.70;;;19.40;77.00;;;;;;5053247;28;20410;-67
2024/02/02 04:18:33;;;;;;;4.18;1.05;;;19.40;76.80;;;;;;5053166;28;20025;-65
2024/02/02 04:20:59;;;;;;;3.08;0.70;;;19.40;76.90;;;;;;5051242;28;20606;-65
2024/02/02 04:23:25;;;;;;;2.42;0.47;;;19.40;76.70;;;;;;5053358;28;20051;-64
2024/02/02 04:25:51;;;;;;;1.40;0.52;;;19.40;76.90;;;;;;5053276;28;20029;-65
2024/02/02 04:28:16;;;;;;;3.33;1.13;;;19.40;76.50;;;;;;5052889;28;20407;-65
2024/02/02 04:30:42;;;;;;;1.00;0.40;;;19.40;76.50;;;;;;5052507;28;20025;-65
2024/02/02 04:33:08;;;;;;;4.97;0.75;;;19.40;76.30;;;;;;5053368;28;20021;-64
2024/02/02 04:35:34;;;;;;;5.80;0.63;;;19.40;76.50;;;;;;5053580;28;20032;-65
2024/02/02 04:38:04;;;;;;;1.17;0.40;;;19.40;76.80;;;;;;5053351;28;20053;-65
2024/02/02 04:40:30;;;;;;;5.30;0.70;;;19.40;76.50;;;;;;5052319;28;20271;-64
2024/02/02 04:42:57;;;;;;;3.67;1.23;;;19.40;76.50;;;;;;5052682;28;20021;-65
2024/02/02 04:45:23;;;;;;;3.50;0.75;;;19.40;76.60;;;;;;5052630;28;20104;-64
2024/02/02 04:47:48;;;;;;;3.13;0.50;;;19.40;76.80;;;;;;5052662;28;20484;-65
2024/02/02 04:50:15;;;;;;;1.20;0.50;;;19.40;76.90;;;;;;5051862;28;20078;-66
2024/02/02 04:52:41;;;;;;;1.00;0.55;;;19.50;76.80;;;;;;5052605;28;20036;-67
2024/02/02 04:55:06;;;;;;;2.13;0.85;;;19.40;76.60;;;;;;5052416;28;20405;-66
2024/02/02 04:57:32;;;;;;;1.08;0.40;;;19.40;76.80;;;;;;5052480;28;20025;-67
2024/02/02 04:59:58;;;;;;;3.15;0.82;;;19.40;76.80;;;;;;5052268;28;20104;-66
2024/02/02 05:02:25;;;;;;;2.10;0.60;;;19.40;76.80;;;;;;5051784;28;20220;-66
2024/02/02 05:04:51;;;;;;;0.90;0.40;;;19.40;76.90;;;;;;5052260;28;20086;-66
2024/02/02 05:07:16;;;;;;;1.30;0.90;;;19.40;76.90;;;;;;5052311;28;20615;-66
2024/02/02 05:09:42;;;;;;;2.75;0.82;;;19.40;76.90;;;;;;5052065;28;20101;-64
2024/02/02 05:12:08;;;;;;;2.67;0.70;;;19.40;76.80;;;;;;5051769;28;20028;-65
2024/02/02 05:14:33;;;;;;;5.07;0.68;;;19.40;76.60;;;;;;5052009;28;20115;-64
2024/02/02 05:16:59;;;;;;;2.38;0.63;;;19.40;76.70;;;;;;5052205;28;20033;-65
2024/02/02 05:19:25;;;;;;;2.78;0.52;;;19.40;76.60;;;;;;5051967;28;20029;-64
2024/02/02 05:21:50;;;;;;;2.03;0.50;;;19.40;76.70;;;;;;5051682;28;20508;-64
2024/02/02 05:24:16;;;;;;;3.47;0.75;;;19.40;76.80;;;;;;5051938;28;20422;-64
2024/02/02 05:26:42;;;;;;;2.13;0.70;;;19.40;76.70;;;;;;5049486;28;20025;-64
2024/02/02 05:29:07;;;;;;;1.23;0.57;;;19.40;76.60;;;;;;5040038;28;20030;-64
2024/02/02 05:31:33;;;;;;;1.67;0.80;;;19.40;77.10;;;;;;5031128;28;20091;-64
2024/02/02 05:33:59;;;;;;;1.35;0.55;;;19.40;76.80;;;;;;5031793;28;20033;-64
2024/02/02 05:36:24;;;;;;;3.15;0.60;;;19.40;76.90;;;;;;5031804;28;20117;-65
2024/02/02 05:38:50;;;;;;;0.73;0.30;;;19.40;76.90;;;;;;5031839;28;20029;-64
2024/02/02 05:41:15;;;;;;;1.20;0.52;;;19.40;76.80;;;;;;5030474;28;20064;-66
2024/02/02 05:43:41;;;;;;;2.22;0.70;;;19.40;77.00;;;;;;5044375;28;20035;-64
2024/02/02 05:46:07;;;;;;;2.80;0.50;;;19.40;77.10;;;;;;5059169;28;20039;-65
2024/02/02 05:48:32;;;;;;;3.25;0.57;;;19.40;77.10;;;;;;5051595;28;20056;-65
2024/02/02 05:50:59;;;;;;;3.53;0.90;;;19.40;77.10;;;;;;5051718;28;20024;-65
2024/02/02 05:53:24;;;;;;;2.97;0.60;;;19.40;77.10;;;;;;5052163;28;20029;-66
2024/02/02 05:55:50;;;;;;;6.57;0.70;;;19.40;77.10;;;;;;5050110;28;20029;-65
2024/02/02 05:58:16;;;;;;;2.33;0.90;;;19.40;77.20;;;;;;5034496;28;20018;-65
2024/02/02 06:00:42;;;;;;;2.10;0.50;;;19.40;77.10;;;;;;5028903;28;20045;-64
2024/02/02 06:03:07;;;;;;;2.38;0.70;;;19.40;77.20;;;;;;5031471;28;20648;-65
2024/02/02 06:05:33;;;;;;;5.85;1.00;;;19.40;77.60;;;;;;5031306;28;20040;-65
2024/02/02 06:08:02;;;;;;;4.25;1.25;;;19.40;77.10;;;;;;5031540;28;20032;-67
2024/02/02 06:10:28;;;;;;;14.88;2.35;;;19.40;77.20;;;;;;5030714;28;20147;-66
2024/02/02 06:12:54;;;;;;;9.95;1.70;;;19.40;76.90;;;;;;5031051;28;20533;-66
2024/02/02 06:15:20;;;;;;;6.22;1.40;;;19.40;76.10;;;;;;5031027;28;20192;-66
2024/02/02 06:17:45;;;;;;;20.58;4.30;;;19.40;75.70;;;;;;5031287;28;20120;-65
2024/02/02 06:20:12;;;;;;;18.83;3.50;;;19.40;77.70;;;;;;5030668;28;20021;-65
2024/02/02 06:22:38;;;;;;;12.63;2.97;;;19.50;79.10;;;;;;5031300;28;20028;-66
2024/02/02 06:25:04;;;;;;;12.25;2.08;;;19.50;79.10;;;;;;5031178;28;20392;-68
2024/02/02 06:27:30;;;;;;;16.35;2.40;;;19.50;79.20;;;;;;5031179;28;20075;-64
2024/02/02 06:29:58;;;;;;;11.65;2.35;;;19.50;78.60;;;;;;5030687;28;20030;-63
2024/02/02 06:32:24;;;;;;;9.90;2.17;;;19.50;78.40;;;;;;5030420;28;20083;-64
2024/02/02 06:34:55;;;;;;;15.23;2.47;;;19.50;78.30;;;;;;5030157;28;20481;-63
2024/02/02 06:37:24;;;;;;;7.65;1.85;;;19.50;78.20;;;;;;5031000;28;20045;-63
2024/02/02 06:39:55;;;;;;;6.90;1.60;;;19.50;78.10;;;;;;5030897;28;20525;-65
2024/02/02 06:42:22;;;;;;;13.55;2.33;;;19.50;78.00;;;;;;5030462;28;20041;-64
2024/02/02 06:44:50;;;;;;;18.73;3.05;;;19.50;78.00;;;;;;5031040;28;20028;-64
2024/02/02 06:47:17;;;;;;;7.63;2.03;;;19.50;78.20;;;;;;5029630;28;20021;-64
2024/02/02 06:49:43;;;;;;;11.35;2.15;;;19.50;78.00;;;;;;5030845;28;20017;-64
2024/02/02 06:52:08;;;;;;;5.20;1.33;;;19.50;77.80;;;;;;5032337;28;20033;-64
2024/02/02 06:54:34;;;;;;;9.18;2.10;;;19.50;77.60;;;;;;5034750;28;20033;-64
2024/02/02 06:57:00;;;;;;;40.45;4.53;;;19.40;77.40;;;;;;5033556;28;20181;-64
2024/02/02 06:59:25;;;;;;;33.45;5.55;;;19.40;76.60;;;;;;5034811;28;20022;-63
2024/02/02 07:01:51;;;;;;;20.92;5.43;;;18.50;64.60;;;;;;5035514;28;20086;-63
2024/02/02 07:04:18;;;;;;;15.02;5.05;;;17.60;60.60;;;;;;5039151;28;20026;-70
2024/02/02 07:06:45;;;;;;;16.00;5.03;;;17.00;60.00;;;;;;5041539;28;20040;-66
2024/02/02 07:09:20;;;;;;;13.07;3.72;;;16.70;64.60;;;;;;5048451;28;20032;-65
2024/02/02 07:11:58;;;;;;;21.98;5.55;;;16.90;70.00;;;;;;5056733;28;20071;-65
2024/02/02 07:14:48;;;;;;;24.38;5.50;;;16.80;64.60;;;;;;5055809;28;20085;-65
2024/02/02 07:17:20;;;;;;;13.20;5.20;;;16.40;62.90;;;;;;5043276;28;20029;-65
2024/02/02 07:19:46;;;;;;;14.38;5.65;;;16.00;53.60;;;;;;5052448;28;20021;-65
2024/02/02 07:22:40;;;;;;;18.13;5.82;;;15.30;48.80;;;;;;5051850;28;20461;-65
2024/02/02 07:25:17;;;;;;;15.90;5.47;;;14.60;49.80;;;;;;5032006;28;20079;-65
2024/02/02 07:27:51;;;;;;;16.98;5.93;;;14.00;50.00;;;;;;5032403;28;20022;-65
2024/02/02 07:30:41;;;;;;;17.63;5.05;;;13.60;50.20;;;;;;5032127;28;20056;-66
2024/02/02 07:33:40;;;;;;;10.55;3.95;;;13.30;54.00;;;;;;5034096;28;20554;-66
2024/02/02 07:36:16;;;;;;;10.63;3.53;;;13.80;60.40;;;;;;5034285;28;20029;-66
2024/02/02 07:38:55;;;;;;;11.18;3.88;;;14.50;63.50;;;;;;5033120;28;20022;-66
2024/02/02 07:41:28;;;;;;;12.27;3.03;;;14.90;64.70;;;;;;5032679;28;20420;-66
2024/02/02 07:44:01;;;;;;;11.43;3.88;;;15.40;65.20;;;;;;5032758;28;20029;-66
2024/02/02 07:46:27;;;;;;;10.10;3.40;;;15.80;65.60;;;;;;5034146;28;20017;-66
2024/02/02 07:48:54;;;;;;;12.02;3.13;;;16.00;65.70;;;;;;5033978;28;20091;-66
2024/02/02 07:51:22;;;;;;;13.63;3.78;;;16.40;65.80;;;;;;5033373;28;20408;-66
2024/02/02 07:53:48;;;;;;;7.45;2.88;;;16.60;65.80;;;;;;5033568;28;20440;-66
2024/02/02 07:56:15;;;;;;;7.22;2.35;;;16.80;65.90;;;;;;5033776;28;20057;-66
2024/02/02 07:58:41;;;;;;;8.73;2.33;;;17.00;65.90;;;;;;5033593;28;20057;-66
2024/02/02 08:01:10;;;;;;;5.63;2.58;;;17.20;66.00;;;;;;5031586;28;20041;-66
2024/02/02 08:03:37;;;;;;;8.10;3.03;;;17.30;66.00;;;;;;5032877;28;20099;-66
2024/02/02 08:06:03;;;;;;;7.95;2.83;;;17.50;66.10;;;;;;5033565;28;20060;-66
2024/02/02 08:08:32;;;;;;;9.75;2.58;;;17.60;66.00;;;;;;5033463;28;20533;-66
2024/02/02 08:10:59;;;;;;;9.15;2.47;;;17.70;66.00;;;;;;5032827;28;20021;-66
2024/02/02 08:13:25;;;;;;;8.02;2.95;;;17.80;66.00;;;;;;5033373;28;20029;-67
2024/02/02 08:15:51;;;;;;;7.97;2.95;;;17.90;65.90;;;;;;5033276;28;20014;-66
2024/02/02 08:18:16;;;;;;;9.02;3.25;;;18.00;65.80;;;;;;5033363;28;20053;-66
2024/02/02 08:20:42;;;;;;;6.70;2.10;;;18.00;65.80;;;;;;5032714;28;20021;-66
2024/02/02 08:23:08;;;;;;;7.18;2.78;;;18.00;65.80;;;;;;5033161;28;20028;-66
2024/02/02 08:25:34;;;;;;;4.72;1.92;;;18.20;65.70;;;;;;5033573;28;20028;-66
2024/02/02 08:28:00;;;;;;;4.50;2.33;;;18.30;65.60;;;;;;5033113;28;20029;-67
2024/02/02 08:30:26;;;;;;;6.03;2.00;;;18.30;65.60;;;;;;5032773;28;20413;-66
2024/02/02 08:32:51;;;;;;;3.17;1.90;;;18.30;65.60;;;;;;5032857;28;20040;-66
2024/02/02 08:35:22;;;;;;;6.03;1.73;;;18.40;65.50;;;;;;5032874;28;20025;-67
2024/02/02 08:37:56;;;;;;;7.60;2.20;;;18.40;65.60;;;;;;5031401;28;20054;-66
2024/02/02 08:40:33;;;;;;;4.50;2.10;;;18.50;65.50;;;;;;5031485;28;20044;-67
2024/02/02 08:42:59;;;;;;;4.93;1.60;;;18.50;65.50;;;;;;5032931;28;20025;-67
2024/02/02 08:45:43;;;;;;;4.05;1.55;;;18.50;65.50;;;;;;5032990;28;20091;-67
2024/02/02 08:48:21;;;;;;;4.97;1.85;;;18.50;65.50;;;;;;5032754;28;20030;-66
2024/02/02 08:50:47;;;;;;;3.83;1.70;;;18.50;65.50;;;;;;5032008;28;20064;-67
2024/02/02 08:53:15;;;;;;;8.57;2.47;;;18.50;65.50;;;;;;5032625;28;20485;-66
2024/02/02 08:55:45;;;;;;;4.80;1.95;;;18.60;65.50;;;;;;5032783;28;20063;-66
2024/02/02 08:58:18;;;;;;;3.80;1.60;;;18.60;65.50;;;;;;5032638;28;20484;-66
2024/02/02 09:00:44;;;;;;;6.15;1.90;;;18.60;65.50;;;;;;5031928;28;20048;-66
2024/02/02 09:03:24;;;;;;;4.10;1.63;;;18.60;65.50;;;;;;5031321;28;20021;-66
2024/02/02 09:05:57;;;;;;;4.90;1.30;;;18.60;65.60;;;;;;5032629;28;20021;-66
2024/02/02 09:08:33;;;;;;;3.97;1.52;;;18.60;65.60;;;;;;5032621;28;20255;-66
2024/02/02 09:10:59;;;;;;;4.45;1.77;;;18.60;65.60;;;;;;5031878;28;20052;-66
2024/02/02 09:13:35;;;;;;;2.50;1.20;;;18.60;65.60;;;;;;5032193;28;20022;-66
2024/02/02 09:16:00;;;;;;;4.50;1.67;;;18.60;65.60;;;;;;5031273;28;20037;-66
2024/02/02 09:18:33;;;;;;;3.78;1.65;;;18.70;65.60;;;;;;5032264;28;20022;-66
2024/02/02 09:21:03;;;;;;;4.35;1.55;;;18.70;65.60;;;;;;5031083;28;20029;-66
2024/02/02 09:23:32;;;;;;;3.25;1.17;;;18.70;65.60;;;;;;5032146;28;20025;-66
2024/02/02 09:25:59;;;;;;;4.65;1.52;;;18.70;65.70;;;;;;5031941;28;20052;-67
2024/02/02 09:28:25;;;;;;;1.88;1.00;;;18.70;65.70;;;;;;5032665;28;20088;-66
2024/02/02 09:30:58;;;;;;;4.13;2.10;;;18.70;65.70;;;;;;5034056;28;20069;-67
2024/02/02 09:34:06;;;;;;;3.13;1.38;;;18.70;65.80;;;;;;5039039;28;20089;-67
2024/02/02 09:36:31;;;;;;;1.90;1.02;;;18.70;65.90;;;;;;5012576;28;20117;-66
2024/02/02 09:39:03;;;;;;;3.35;1.33;;;18.60;66.00;;;;;;5033445;28;20060;-65
2024/02/02 09:41:50;;;;;;;2.67;0.98;;;18.70;66.00;;;;;;5031685;28;20033;-66
2024/02/02 09:44:43;;;;;;;2.55;1.15;;;18.70;66.10;;;;;;5032110;28;20061;-65
2024/02/02 09:47:41;;;;;;;3.17;0.90;;;18.70;66.20;;;;;;5031897;28;20029;-68
2024/02/02 09:50:17;;;;;;;2.55;0.98;;;18.70;66.20;;;;;;5031093;28;20021;-65
2024/02/02 09:53:01;;;;;;;1.67;0.80;;;18.70;66.30;;;;;;5031648;28;20100;-66
2024/02/02 09:55:45;;;;;;;1.65;0.85;;;18.60;66.30;;;;;;5059664;22;20079;-69
2024/02/02 09:58:37;;;;;;;1.92;1.13;;;18.70;66.40;;;;;;5051432;28;20037;-69
2024/02/02 10:01:34;;;;;;;3.65;1.20;;;18.70;66.40;;;;;;5050826;28;20049;-69
2024/02/02 10:04:20;;;;;;;1.45;0.80;;;18.60;66.40;;;;;;5051489;28;20051;-69
2024/02/02 10:07:23;;;;;;;2.47;1.05;;;18.70;66.50;;;;;;5051414;28;20028;-70
2024/02/02 10:10:07;;;;;;;1.73;1.10;;;18.60;66.50;;;;;;5051160;28;20031;-69
2024/02/02 10:12:57;;;;;;;1.58;1.00;;;18.60;66.60;;;;;;5051072;28;20485;-69
2024/02/02 10:15:46;;;;;;;1.13;0.68;;;18.60;66.60;;;;;;5051343;28;20033;-69
2024/02/02 10:18:14;;;;;;;2.22;0.80;;;18.70;66.70;;;;;;5051339;28;20037;-69
2024/02/02 10:21:12;;;;;;;2.55;0.90;;;18.60;66.70;;;;;;5050681;28;20118;-69
2024/02/02 10:24:04;;;;;;;1.92;0.85;;;18.60;66.80;;;;;;5017405;28;20060;-69
2024/02/02 10:26:52;;;;;;;1.67;0.90;;;18.70;66.80;;;;;;5050720;28;20033;-69
2024/02/02 10:29:34;;;;;;;1.48;0.73;;;18.60;66.80;;;;;;5050880;28;20102;-69
2024/02/02 10:32:09;;;;;;;2.05;0.68;;;18.60;66.90;;;;;;5050415;28;20029;-69
2024/02/02 10:34:53;;;;;;;3.13;0.73;;;18.60;66.90;;;;;;5050949;28;20025;-69
2024/02/02 10:37:36;;;;;;;1.08;0.82;;;18.60;66.90;;;;;;5051048;28;20036;-70
2024/02/02 10:40:07;;;;;;;1.88;0.82;;;18.60;67.00;;;;;;5050639;28;20120;-69
2024/02/02 10:42:52;;;;;;;1.23;0.68;;;18.60;67.00;;;;;;5050897;28;20078;-69
2024/02/02 10:45:23;;;;;;;1.50;0.80;;;18.60;67.00;;;;;;5050846;28;20029;-70
2024/02/02 10:48:04;;;;;;;3.05;1.13;;;18.60;67.00;;;;;;5050717;28;20045;-69
2024/02/02 10:50:36;;;;;;;2.23;0.90;;;18.60;67.10;;;;;;5050287;28;20044;-69
2024/02/02 10:53:28;;;;;;;1.02;0.70;;;18.60;67.10;;;;;;5051076;28;20642;-69
2024/02/02 10:56:12;;;;;;;1.83;0.80;;;18.60;67.10;;;;;;5049266;28;20086;-69
2024/02/02 10:58:59;;;;;;;0.85;0.57;;;18.60;67.20;;;;;;5050915;28;20033;-69
2024/02/02 11:02:02;;;;;;;0.70;0.70;;;18.60;67.20;;;;;;5049212;28;20021;-69
2024/02/02 11:04:56;;;;;;;2.55;0.80;;;18.60;67.20;;;;;;5050869;28;20024;-69
2024/02/02 11:07:44;;;;;;;0.77;0.60;;;18.60;67.30;;;;;;5050916;28;20021;-68
2024/02/02 11:10:15;;;;;;;1.40;0.70;;;18.60;67.30;;;;;;5038733;28;20044;-68
2024/02/02 11:12:50;;;;;;;1.38;0.63;;;18.50;67.30;;;;;;5050300;28;20025;-67
2024/02/02 11:15:33;;;;;;;1.50;0.68;;;18.50;67.40;;;;;;5050092;28;20067;-68
2024/02/02 11:18:17;;;;;;;1.38;0.68;;;18.60;67.40;;;;;;5049486;28;20029;-69
2024/02/02 11:21:04;;;;;;;1.35;0.80;;;18.50;67.40;;;;;;5050136;28;20395;-69
2024/02/02 11:23:53;;;;;;;0.80;0.50;;;18.50;67.40;;;;;;5050527;28;20021;-69
2024/02/02 11:26:30;;;;;;;1.95;0.82;;;18.50;67.50;;;;;;5050615;28;20082;-69
2024/02/02 11:29:37;;;;;;;2.08;0.65;;;18.50;67.50;;;;;;5050882;28;20040;-70
2024/02/02 11:32:14;;;;;;;1.13;0.63;;;18.60;67.50;;;;;;5050298;28;20028;-70
2024/02/02 11:34:58;;;;;;;1.50;0.60;;;18.50;67.50;;;;;;5049354;28;20079;-66
2024/02/02 11:38:03;;;;;;;1.13;0.55;;;18.60;67.50;;;;;;5050599;28;20028;-70
2024/02/02 11:40:30;;;;;;;1.02;0.70;;;18.50;67.60;;;;;;5051949;28;20028;-70
2024/02/02 11:42:58;;;;;;;0.55;0.50;;;18.50;67.60;;;;;;5054091;28;20412;-69
2024/02/02 11:45:30;;;;;;;1.38;0.50;;;18.50;67.60;;;;;;5053913;28;20055;-69
2024/02/02 11:48:03;;;;;;;0.75;0.40;;;18.50;67.60;;;;;;5054047;28;20028;-69
2024/02/02 11:50:47;;;;;;;1.48;0.50;;;18.50;67.60;;;;;;5053159;28;20078;-69
2024/02/02 11:53:41;;;;;;;1.40;0.50;;;18.50;67.60;;;;;;5053921;28;20036;-70
2024/02/02 11:56:14;;;;;;;0.80;0.60;;;18.50;67.60;;;;;;5053645;28;20033;-69
2024/02/02 11:58:43;;;;;;;0.73;0.43;;;18.50;67.70;;;;;;5054204;28;20047;-69
2024/02/02 12:01:28;;;;;;;0.82;0.45;;;18.50;67.70;;;;;;5053017;28;20021;-70
2024/02/02 12:04:09;;;;;;;1.33;0.73;;;18.50;67.70;;;;;;5053724;28;20028;-69
2024/02/02 12:07:06;;;;;;;1.85;0.80;;;18.60;67.80;;;;;;5052636;28;20029;-69
2024/02/02 12:09:46;;;;;;;1.65;0.75;;;18.50;67.70;;;;;;5052087;28;20037;-69
2024/02/02 12:12:43;;;;;;;0.88;0.50;;;18.50;67.80;;;;;;5052262;28;20029;-70
2024/02/02 12:15:09;;;;;;;1.33;0.50;;;18.50;67.80;;;;;;5049818;28;20103;-69
2024/02/02 12:17:36;;;;;;;0.77;0.60;;;18.60;67.80;;;;;;5053390;28;20048;-69
2024/02/02 12:20:07;;;;;;;0.55;0.47;;;18.50;67.80;;;;;;5053088;28;20028;-69
2024/02/02 12:22:39;;;;;;;1.10;0.65;;;18.50;67.80;;;;;;5053404;28;20029;-69
2024/02/02 12:25:09;;;;;;;1.15;0.50;;;18.50;67.90;;;;;;5053403;28;20095;-67
2024/02/02 12:27:38;;;;;;;1.20;0.57;;;18.50;67.90;;;;;;5053199;28;20028;-69
2024/02/02 12:30:08;;;;;;;0.45;0.40;;;18.50;67.90;;;;;;5052854;28;20029;-69
2024/02/02 12:32:34;;;;;;;0.75;0.45;;;18.50;67.90;;;;;;5053334;28;20044;-70
2024/02/02 12:35:04;;;;;;;0.90;0.52;;;18.50;67.90;;;;;;5053089;28;20040;-68
2024/02/02 12:37:30;;;;;;;0.40;0.30;;;18.50;67.90;;;;;;5053072;28;20024;-70
2024/02/02 12:39:56;;;;;;;1.13;0.50;;;18.50;67.90;;;;;;5052830;28;20099;-69
2024/02/02 12:42:22;;;;;;;0.65;0.50;;;18.50;68.00;;;;;;5052377;28;20433;-66
2024/02/02 12:44:50;;;;;;;0.68;0.60;;;18.50;68.00;;;;;;5052186;28;20062;-70
2024/02/02 12:47:25;;;;;;;0.93;0.40;;;18.50;68.00;;;;;;5052703;28;20037;-71
2024/02/02 12:49:52;;;;;;;1.55;0.40;;;18.50;68.00;;;;;;5052640;28;20031;-70
2024/02/02 12:52:18;;;;;;;1.25;0.40;;;18.50;68.00;;;;;;5052298;28;20035;-70
2024/02/02 12:54:43;;;;;;;0.75;0.60;;;18.50;68.00;;;;;;5052666;28;20127;-70
2024/02/02 12:57:09;;;;;;;1.50;0.70;;;18.50;68.00;;;;;;5052746;28;20021;-70
2024/02/02 12:59:35;;;;;;;0.35;0.35;;;18.50;68.10;;;;;;5052760;28;20025;-67
2024/02/02 13:02:01;;;;;;;0.38;0.30;;;18.50;68.10;;;;;;5051842;28;20515;-68